Terminal Aerodrome Forecast
Issued by NWS Shreveport, LA

Home | Current Version | Previous Version | Text Only | Print | Product List | Glossary On
Versions: 1 2 3 4 5 6 7 8 9 10 11 12 13 14 15 16 17 18 19 20 21 22
750
FTUS44 KSHV 201146
TAFMLU
TAF
KMLU 201146Z 2012/2112 21009KT P6SM OVC010
      TEMPO 2012/2016 OVC006
     FM201600 21012KT P6SM SCT015 SCT250
     FM210000 20006KT P6SM SCT140 BKN250
     FM210300 20006KT P6SM BKN010
     FM210700 19006KT P6SM VCTS OVC010CB
     FM210900 19006KT 3SM -TSRA BR OVC010CB=

USA.gov is the U.S. government's official web portal to all federal, state and local government web resources and services.